createdAt,value
2022-08-20T00:04:56.902Z,23.55
2022-08-20T00:14:59.919Z,23.70
2022-08-20T00:25:04.597Z,24.00
2022-08-20T00:35:07.457Z,24.52
2022-08-20T00:45:18.204Z,24.66
2022-08-20T00:55:27.475Z,24.79
2022-08-20T01:05:33.956Z,24.81
2022-08-20T01:15:43.026Z,24.88
2022-08-20T01:26:12.734Z,24.78
2022-08-20T01:36:17.879Z,24.69
2022-08-20T01:46:20.868Z,24.65
2022-08-20T01:56:29.939Z,24.52
2022-08-20T02:06:38.004Z,24.16
2022-08-20T02:16:43.427Z,23.89
2022-08-20T02:26:55.385Z,23.65
2022-08-20T02:36:58.008Z,23.34
2022-08-20T02:47:01.198Z,23.21
2022-08-20T02:57:05.206Z,23.25
2022-08-20T03:07:08.042Z,23.21
2022-08-20T03:17:10.889Z,23.24
2022-08-20T03:27:13.921Z,23.39
2022-08-20T03:37:16.940Z,23.51
2022-08-20T03:47:20.599Z,23.43
2022-08-20T03:57:23.942Z,23.60
2022-08-20T04:07:27.226Z,23.70
2022-08-20T04:17:29.866Z,23.78
2022-08-20T04:27:35.566Z,23.74
2022-08-20T04:37:42.451Z,24.05
2022-08-20T04:47:46.698Z,24.33
2022-08-20T04:57:49.109Z,24.41
2022-08-20T05:07:52.111Z,24.65
2022-08-20T05:17:57.706Z,25.03
2022-08-20T05:28:09.433Z,25.38
2022-08-20T05:38:18.496Z,26.07
2022-08-20T05:48:23.502Z,26.70
2022-08-20T05:58:28.657Z,27.14
2022-08-20T06:08:32.490Z,27.50
2022-08-20T06:18:35.232Z,28.04
2022-08-20T06:28:37.932Z,28.78
2022-08-20T06:38:40.923Z,29.12
2022-08-20T06:48:45.194Z,29.95
2022-08-20T06:58:47.856Z,30.31
2022-08-20T07:08:51.878Z,30.03
2022-08-20T07:18:58.652Z,30.82
2022-08-20T07:29:01.179Z,31.29
2022-08-20T07:39:05.831Z,31.64
2022-08-20T07:49:14.738Z,32.01
2022-08-20T07:59:18.296Z,32.77
2022-08-20T08:09:20.696Z,33.29
2022-08-20T08:19:24.397Z,32.71
2022-08-20T08:29:31.232Z,33.30
2022-08-20T08:39:37.253Z,34.16
2022-08-20T08:49:40.228Z,33.99
2022-08-20T08:59:46.213Z,33.80
2022-08-20T09:10:07.413Z,33.06
2022-08-20T09:20:11.376Z,34.41
2022-08-20T09:30:15.895Z,34.87
2022-08-20T09:40:22.522Z,34.64
2022-08-20T09:50:31.172Z,35.28
2022-08-20T10:00:33.629Z,36.09
2022-08-20T10:10:36.339Z,36.25
2022-08-20T10:20:38.981Z,36.88
2022-08-20T10:30:41.510Z,37.80
2022-08-20T10:40:46.129Z,38.30
2022-08-20T10:50:55.175Z,38.23
2022-08-20T11:00:57.750Z,37.07
2022-08-20T11:11:00.183Z,38.36
2022-08-20T11:21:03.043Z,38.62
2022-08-20T11:31:05.868Z,38.28
2022-08-20T11:41:08.942Z,38.86
2022-08-20T11:51:12.103Z,39.48
2022-08-20T12:01:14.983Z,36.59
2022-08-20T12:11:17.891Z,34.96
2022-08-20T12:21:21.998Z,34.46
2022-08-20T12:31:24.896Z,33.02
2022-08-20T12:41:27.896Z,33.93
2022-08-20T12:51:31.252Z,33.55
2022-08-20T13:01:45.224Z,32.30
2022-08-20T13:11:47.842Z,32.06
2022-08-20T13:21:55.152Z,31.72
2022-08-20T13:31:57.860Z,32.15
2022-08-20T13:42:00.834Z,32.04
2022-08-20T13:52:03.826Z,31.20
2022-08-20T14:02:08.121Z,31.23
2022-08-20T14:12:11.767Z,31.70
2022-08-20T14:22:18.041Z,30.76
2022-08-20T14:32:21.991Z,30.39
2022-08-20T14:43:22.241Z,30.00
2022-08-20T14:52:59.612Z,29.81
2022-08-20T15:03:02.474Z,29.62
2022-08-20T15:13:07.073Z,29.36
2022-08-20T15:23:13.067Z,29.36
2022-08-20T15:33:15.587Z,29.44
2022-08-20T15:43:18.147Z,29.29
2022-08-20T15:54:10.207Z,28.96
2022-08-20T16:04:17.972Z,28.61
2022-08-20T16:14:25.620Z,28.75
2022-08-20T16:24:28.890Z,28.71
2022-08-20T16:34:54.293Z,28.70
2022-08-20T16:44:57.537Z,28.46
2022-08-20T16:55:00.212Z,27.97
2022-08-20T17:05:04.766Z,27.28
2022-08-20T17:15:19.613Z,27.17
2022-08-20T17:25:32.397Z,26.94
2022-08-20T17:35:44.108Z,26.63
2022-08-20T17:45:50.304Z,26.50
2022-08-20T17:55:58.570Z,26.27
2022-08-20T18:06:11.648Z,25.95
2022-08-20T18:16:23.840Z,25.87
2022-08-20T18:26:47.072Z,25.75
2022-08-20T18:37:00.656Z,25.52
2022-08-20T18:47:05.927Z,25.17
2022-08-20T18:57:46.969Z,25.24
2022-08-20T19:07:52.298Z,25.02
2022-08-20T19:17:55.021Z,24.70
2022-08-20T19:28:17.850Z,24.62
2022-08-20T19:38:28.823Z,24.45
2022-08-20T19:49:00.340Z,24.50
2022-08-20T19:59:05.763Z,24.42
2022-08-20T20:09:17.997Z,23.64
2022-08-20T20:19:26.730Z,23.27
2022-08-20T20:29:36.380Z,23.20
2022-08-20T20:39:45.689Z,23.24
2022-08-20T20:49:57.873Z,23.28
2022-08-20T21:00:00.604Z,23.23
2022-08-20T21:10:10.191Z,23.06
2022-08-20T21:20:13.851Z,22.95
2022-08-20T21:30:19.660Z,23.01
2022-08-20T21:40:24.500Z,23.07
2022-08-20T21:50:31.094Z,22.82
2022-08-20T22:00:55.098Z,22.74
2022-08-20T22:10:58.303Z,22.72
2022-08-20T22:21:01.534Z,22.79
2022-08-20T22:31:04.933Z,22.66
2022-08-20T22:41:09.885Z,22.31
2022-08-20T22:51:38.720Z,22.34
2022-08-20T23:01:41.588Z,22.41
2022-08-20T23:11:44.168Z,22.30
2022-08-20T23:21:46.618Z,22.25
2022-08-20T23:31:49.040Z,22.16
2022-08-20T23:41:51.705Z,21.88
2022-08-20T23:51:54.290Z,21.77
